Terminal Aerodrome Forecast
Issued by NWS

Home | Current Version | Previous Version | Text Only | Print | Product List | Glossary On
Versions: 1 2 3 4 5 6 7 8 9 10 11
341
FTUS41 KBTV 252334
TAFMSS
TAF
KMSS 252334Z 2600/2624 07005KT P6SM -RA OVC045
      TEMPO 2600/2602 5SM -RA BR OVC030
     FM260300 04006KT P6SM VCSH OVC030
     FM261500 06006KT P6SM BKN035
     FM262000 06007KT P6SM SCT050=

USA.gov is the U.S. government's official web portal to all federal, state and local government web resources and services.